Search for airport 
image banner adimage banner adimage banner ad
image banner ad

74CA - Flying Gluepie Ranch

Located in Fiddletown, United States

ICAO - 74CA, IATA -

Data provided by Airmate  

General information

Coordinates: N38°28'3" W120°48'12"
Elevation is 1451 feet MSL.
 
View others Airports in California

Operational data

Special qualification required
Current time UTC:
Current local time:
METAR: KJAQ 221335Z AUTO 00000KT 10SM CLR 14/12 A2992 RMK AO1 T01350115
View NOTAMs / SUP AIP / TFR affecting this airport [VIEW]
Communications frequencies: [VIEW]

Runways:

RWY identifierQFULength (ft)Width (ft)SurfaceLDA (ft)
09104°80720GRAVEL
27284°80720GRAVEL

Airport contact information

Address: Fiddletown United States

Satellite view of 74CA